sensor_id;sensor_type;location;lat;lon;timestamp;P1;durP1;ratioP1;P2;durP2;ratioP2
24443;SDS011;13346;50.984;5.822;2023-10-09T00:01:43;4.75;;;4.35;;
24443;SDS011;13346;50.984;5.822;2023-10-09T00:04:11;5.55;;;4.85;;
24443;SDS011;13346;50.984;5.822;2023-10-09T00:06:39;6.88;;;4.22;;
24443;SDS011;13346;50.984;5.822;2023-10-09T00:09:07;5.03;;;4.25;;
24443;SDS011;13346;50.984;5.822;2023-10-09T00:11:55;5.20;;;3.85;;
24443;SDS011;13346;50.984;5.822;2023-10-09T00:14:23;5.03;;;4.53;;
24443;SDS011;13346;50.984;5.822;2023-10-09T00:16:52;4.68;;;4.10;;
24443;SDS011;13346;50.984;5.822;2023-10-09T00:19:30;5.38;;;4.57;;
24443;SDS011;13346;50.984;5.822;2023-10-09T00:21:58;5.18;;;4.65;;
24443;SDS011;13346;50.984;5.822;2023-10-09T00:24:33;6.53;;;4.43;;
24443;SDS011;13346;50.984;5.822;2023-10-09T00:27:00;5.47;;;4.95;;
24443;SDS011;13346;50.984;5.822;2023-10-09T00:29:37;6.22;;;4.50;;
24443;SDS011;13346;50.984;5.822;2023-10-09T00:32:11;3.72;;;3.40;;
24443;SDS011;13346;50.984;5.822;2023-10-09T00:34:48;5.28;;;4.75;;
24443;SDS011;13346;50.984;5.822;2023-10-09T00:37:17;5.07;;;4.32;;
24443;SDS011;13346;50.984;5.822;2023-10-09T00:39:48;4.82;;;4.32;;
24443;SDS011;13346;50.984;5.822;2023-10-09T00:42:21;5.10;;;4.60;;
24443;SDS011;13346;50.984;5.822;2023-10-09T00:44:54;4.90;;;4.50;;
24443;SDS011;13346;50.984;5.822;2023-10-09T00:47:23;6.75;;;4.75;;
24443;SDS011;13346;50.984;5.822;2023-10-09T00:49:59;8.05;;;5.10;;
24443;SDS011;13346;50.984;5.822;2023-10-09T00:52:36;5.40;;;4.18;;
24443;SDS011;13346;50.984;5.822;2023-10-09T00:55:08;5.35;;;4.90;;
24443;SDS011;13346;50.984;5.822;2023-10-09T00:57:40;9.52;;;5.03;;
24443;SDS011;13346;50.984;5.822;2023-10-09T01:00:22;4.20;;;3.90;;
24443;SDS011;13346;50.984;5.822;2023-10-09T01:03:13;4.63;;;4.20;;
24443;SDS011;13346;50.984;5.822;2023-10-09T01:05:46;5.60;;;3.97;;
24443;SDS011;13346;50.984;5.822;2023-10-09T01:08:22;6.53;;;4.80;;
24443;SDS011;13346;50.984;5.822;2023-10-09T01:10:55;7.80;;;4.88;;
24443;SDS011;13346;50.984;5.822;2023-10-09T01:13:24;8.48;;;4.65;;
24443;SDS011;13346;50.984;5.822;2023-10-09T01:16:05;5.85;;;4.43;;
24443;SDS011;13346;50.984;5.822;2023-10-09T01:18:39;3.83;;;3.53;;
24443;SDS011;13346;50.984;5.822;2023-10-09T01:21:06;9.52;;;4.03;;
24443;SDS011;13346;50.984;5.822;2023-10-09T01:23:39;5.25;;;4.50;;
24443;SDS011;13346;50.984;5.822;2023-10-09T01:26:24;4.68;;;4.28;;
24443;SDS011;13346;50.984;5.822;2023-10-09T01:28:51;5.85;;;4.47;;
24443;SDS011;13346;50.984;5.822;2023-10-09T01:31:23;5.25;;;4.47;;
24443;SDS011;13346;50.984;5.822;2023-10-09T01:33:51;4.88;;;4.25;;
24443;SDS011;13346;50.984;5.822;2023-10-09T01:36:24;6.35;;;4.70;;
24443;SDS011;13346;50.984;5.822;2023-10-09T01:38:59;4.15;;;3.83;;
24443;SDS011;13346;50.984;5.822;2023-10-09T01:41:33;4.80;;;4.40;;
24443;SDS011;13346;50.984;5.822;2023-10-09T01:44:11;5.15;;;4.53;;
24443;SDS011;13346;50.984;5.822;2023-10-09T01:46:41;5.15;;;4.13;;
24443;SDS011;13346;50.984;5.822;2023-10-09T01:49:11;4.10;;;3.67;;
24443;SDS011;13346;50.984;5.822;2023-10-09T01:51:46;4.35;;;3.95;;
24443;SDS011;13346;50.984;5.822;2023-10-09T01:54:17;6.05;;;4.10;;
24443;SDS011;13346;50.984;5.822;2023-10-09T01:56:58;5.25;;;4.25;;
24443;SDS011;13346;50.984;5.822;2023-10-09T01:59:30;4.88;;;4.47;;
24443;SDS011;13346;50.984;5.822;2023-10-09T02:01:58;5.45;;;4.25;;
24443;SDS011;13346;50.984;5.822;2023-10-09T02:04:35;5.45;;;4.72;;
24443;SDS011;13346;50.984;5.822;2023-10-09T02:07:04;4.63;;;4.18;;
24443;SDS011;13346;50.984;5.822;2023-10-09T02:09:35;5.80;;;5.25;;
24443;SDS011;13346;50.984;5.822;2023-10-09T02:12:10;4.43;;;4.03;;
24443;SDS011;13346;50.984;5.822;2023-10-09T02:14:38;5.82;;;5.32;;
24443;SDS011;13346;50.984;5.822;2023-10-09T02:17:07;9.80;;;5.22;;
24443;SDS011;13346;50.984;5.822;2023-10-09T02:19:43;4.50;;;4.10;;
24443;SDS011;13346;50.984;5.822;2023-10-09T02:22:13;5.53;;;4.97;;
24443;SDS011;13346;50.984;5.822;2023-10-09T02:24:43;13.52;;;5.72;;
24443;SDS011;13346;50.984;5.822;2023-10-09T02:27:23;10.48;;;5.43;;
24443;SDS011;13346;50.984;5.822;2023-10-09T02:30:10;7.30;;;5.65;;
24443;SDS011;13346;50.984;5.822;2023-10-09T02:32:52;6.47;;;5.30;;
24443;SDS011;13346;50.984;5.822;2023-10-09T02:35:24;6.38;;;5.25;;
24443;SDS011;13346;50.984;5.822;2023-10-09T02:38:04;6.28;;;5.03;;
24443;SDS011;13346;50.984;5.822;2023-10-09T02:40:37;7.43;;;5.35;;
24443;SDS011;13346;50.984;5.822;2023-10-09T02:43:28;6.95;;;5.35;;
24443;SDS011;13346;50.984;5.822;2023-10-09T02:45:59;9.32;;;5.35;;
24443;SDS011;13346;50.984;5.822;2023-10-09T02:48:38;5.03;;;4.63;;
24443;SDS011;13346;50.984;5.822;2023-10-09T02:51:10;6.03;;;4.55;;
24443;SDS011;13346;50.984;5.822;2023-10-09T02:53:46;6.68;;;4.72;;
24443;SDS011;13346;50.984;5.822;2023-10-09T02:56:16;6.45;;;4.80;;
24443;SDS011;13346;50.984;5.822;2023-10-09T02:58:49;5.10;;;4.57;;
24443;SDS011;13346;50.984;5.822;2023-10-09T03:01:17;6.50;;;5.40;;
24443;SDS011;13346;50.984;5.822;2023-10-09T03:03:44;5.75;;;5.20;;
24443;SDS011;13346;50.984;5.822;2023-10-09T03:06:12;10.95;;;4.95;;
24443;SDS011;13346;50.984;5.822;2023-10-09T03:08:50;6.78;;;4.75;;
24443;SDS011;13346;50.984;5.822;2023-10-09T03:11:21;13.07;;;6.60;;
24443;SDS011;13346;50.984;5.822;2023-10-09T03:13:48;5.93;;;5.40;;
24443;SDS011;13346;50.984;5.822;2023-10-09T03:16:18;5.88;;;5.28;;
24443;SDS011;13346;50.984;5.822;2023-10-09T03:18:45;5.78;;;5.22;;
24443;SDS011;13346;50.984;5.822;2023-10-09T03:21:13;5.57;;;5.07;;
24443;SDS011;13346;50.984;5.822;2023-10-09T03:23:42;7.47;;;5.40;;
24443;SDS011;13346;50.984;5.822;2023-10-09T03:26:10;7.22;;;5.03;;
24443;SDS011;13346;50.984;5.822;2023-10-09T03:28:39;5.25;;;4.75;;
24443;SDS011;13346;50.984;5.822;2023-10-09T03:31:08;8.20;;;5.45;;
24443;SDS011;13346;50.984;5.822;2023-10-09T03:33:35;10.38;;;5.20;;
24443;SDS011;13346;50.984;5.822;2023-10-09T03:36:03;5.63;;;5.18;;
24443;SDS011;13346;50.984;5.822;2023-10-09T03:38:34;5.60;;;5.10;;
24443;SDS011;13346;50.984;5.822;2023-10-09T03:41:03;7.90;;;5.70;;
24443;SDS011;13346;50.984;5.822;2023-10-09T03:43:32;8.23;;;5.20;;
24443;SDS011;13346;50.984;5.822;2023-10-09T03:46:04;6.45;;;5.85;;
24443;SDS011;13346;50.984;5.822;2023-10-09T03:48:40;5.63;;;4.68;;
24443;SDS011;13346;50.984;5.822;2023-10-09T03:51:08;5.90;;;5.40;;
24443;SDS011;13346;50.984;5.822;2023-10-09T03:53:38;6.88;;;5.20;;
24443;SDS011;13346;50.984;5.822;2023-10-09T03:56:06;6.35;;;5.45;;
24443;SDS011;13346;50.984;5.822;2023-10-09T03:58:37;6.53;;;5.93;;
24443;SDS011;13346;50.984;5.822;2023-10-09T04:01:09;4.78;;;4.32;;
24443;SDS011;13346;50.984;5.822;2023-10-09T04:03:43;6.13;;;5.53;;
24443;SDS011;13346;50.984;5.822;2023-10-09T04:06:11;9.07;;;6.47;;
24443;SDS011;13346;50.984;5.822;2023-10-09T04:08:38;6.90;;;5.38;;
24443;SDS011;13346;50.984;5.822;2023-10-09T04:11:12;5.70;;;5.10;;
24443;SDS011;13346;50.984;5.822;2023-10-09T04:13:43;6.10;;;5.57;;
24443;SDS011;13346;50.984;5.822;2023-10-09T04:16:13;6.25;;;5.75;;
24443;SDS011;13346;50.984;5.822;2023-10-09T04:18:59;6.70;;;6.13;;
24443;SDS011;13346;50.984;5.822;2023-10-09T04:21:36;8.57;;;6.00;;
24443;SDS011;13346;50.984;5.822;2023-10-09T04:24:03;5.72;;;5.22;;
24443;SDS011;13346;50.984;5.822;2023-10-09T04:26:49;6.03;;;5.15;;
24443;SDS011;13346;50.984;5.822;2023-10-09T04:29:22;10.63;;;6.03;;
24443;SDS011;13346;50.984;5.822;2023-10-09T04:32:05;5.95;;;5.32;;
24443;SDS011;13346;50.984;5.822;2023-10-09T04:34:41;6.10;;;5.45;;
24443;SDS011;13346;50.984;5.822;2023-10-09T04:37:16;6.75;;;5.88;;
24443;SDS011;13346;50.984;5.822;2023-10-09T04:39:49;8.18;;;5.35;;
24443;SDS011;13346;50.984;5.822;2023-10-09T04:42:27;5.90;;;5.38;;
24443;SDS011;13346;50.984;5.822;2023-10-09T04:45:02;12.57;;;5.80;;
24443;SDS011;13346;50.984;5.822;2023-10-09T04:47:49;6.32;;;4.90;;
24443;SDS011;13346;50.984;5.822;2023-10-09T04:50:23;10.45;;;5.32;;
24443;SDS011;13346;50.984;5.822;2023-10-09T04:53:07;9.65;;;6.57;;
24443;SDS011;13346;50.984;5.822;2023-10-09T04:55:48;8.73;;;5.60;;
24443;SDS011;13346;50.984;5.822;2023-10-09T04:58:23;7.82;;;5.53;;
24443;SDS011;13346;50.984;5.822;2023-10-09T05:00:52;7.88;;;7.07;;
24443;SDS011;13346;50.984;5.822;2023-10-09T05:03:38;6.70;;;5.10;;
24443;SDS011;13346;50.984;5.822;2023-10-09T05:06:10;5.90;;;5.35;;
24443;SDS011;13346;50.984;5.822;2023-10-09T05:08:58;6.55;;;5.22;;
24443;SDS011;13346;50.984;5.822;2023-10-09T05:11:33;6.30;;;5.70;;
24443;SDS011;13346;50.984;5.822;2023-10-09T05:14:19;10.88;;;5.95;;
24443;SDS011;13346;50.984;5.822;2023-10-09T05:17:04;7.22;;;6.63;;
24443;SDS011;13346;50.984;5.822;2023-10-09T05:19:35;8.68;;;6.20;;
24443;SDS011;13346;50.984;5.822;2023-10-09T05:22:20;8.02;;;5.78;;
24443;SDS011;13346;50.984;5.822;2023-10-09T05:25:02;6.43;;;5.70;;
24443;SDS011;13346;50.984;5.822;2023-10-09T05:27:40;5.55;;;5.05;;
24443;SDS011;13346;50.984;5.822;2023-10-09T05:30:16;5.97;;;5.35;;
24443;SDS011;13346;50.984;5.822;2023-10-09T05:32:53;7.28;;;6.15;;
24443;SDS011;13346;50.984;5.822;2023-10-09T05:35:51;6.13;;;5.45;;
24443;SDS011;13346;50.984;5.822;2023-10-09T05:38:40;7.03;;;6.32;;
24443;SDS011;13346;50.984;5.822;2023-10-09T05:41:11;6.82;;;5.30;;
24443;SDS011;13346;50.984;5.822;2023-10-09T05:43:52;6.40;;;5.80;;
24443;SDS011;13346;50.984;5.822;2023-10-09T05:46:39;7.40;;;6.10;;
24443;SDS011;13346;50.984;5.822;2023-10-09T05:49:26;8.25;;;6.20;;
24443;SDS011;13346;50.984;5.822;2023-10-09T05:52:12;9.05;;;6.72;;
24443;SDS011;13346;50.984;5.822;2023-10-09T05:55:12;6.25;;;5.70;;
24443;SDS011;13346;50.984;5.822;2023-10-09T05:58:02;7.53;;;6.45;;
24443;SDS011;13346;50.984;5.822;2023-10-09T06:00:52;7.32;;;6.10;;
24443;SDS011;13346;50.984;5.822;2023-10-09T06:03:36;7.30;;;6.63;;
24443;SDS011;13346;50.984;5.822;2023-10-09T06:06:19;10.20;;;5.72;;
24443;SDS011;13346;50.984;5.822;2023-10-09T06:09:01;7.95;;;6.50;;
24443;SDS011;13346;50.984;5.822;2023-10-09T06:11:46;7.60;;;6.45;;
24443;SDS011;13346;50.984;5.822;2023-10-09T06:14:20;6.68;;;5.97;;
24443;SDS011;13346;50.984;5.822;2023-10-09T06:16:51;6.68;;;5.97;;
24443;SDS011;13346;50.984;5.822;2023-10-09T06:19:48;9.07;;;6.43;;
24443;SDS011;13346;50.984;5.822;2023-10-09T06:22:14;6.18;;;5.57;;
24443;SDS011;13346;50.984;5.822;2023-10-09T06:25:02;7.00;;;5.97;;
24443;SDS011;13346;50.984;5.822;2023-10-09T06:27:36;6.60;;;5.82;;
24443;SDS011;13346;50.984;5.822;2023-10-09T06:30:21;8.60;;;6.65;;
24443;SDS011;13346;50.984;5.822;2023-10-09T06:32:52;9.10;;;6.53;;
24443;SDS011;13346;50.984;5.822;2023-10-09T06:35:44;8.43;;;6.10;;
24443;SDS011;13346;50.984;5.822;2023-10-09T06:38:19;9.10;;;6.55;;
24443;SDS011;13346;50.984;5.822;2023-10-09T06:40:50;13.18;;;6.97;;
24443;SDS011;13346;50.984;5.822;2023-10-09T06:43:35;8.98;;;6.45;;
24443;SDS011;13346;50.984;5.822;2023-10-09T06:46:16;16.65;;;6.47;;
24443;SDS011;13346;50.984;5.822;2023-10-09T06:49:00;6.53;;;5.88;;
24443;SDS011;13346;50.984;5.822;2023-10-09T06:51:47;7.68;;;6.78;;
24443;SDS011;13346;50.984;5.822;2023-10-09T06:54:20;7.45;;;5.90;;
24443;SDS011;13346;50.984;5.822;2023-10-09T06:56:52;7.05;;;6.30;;
24443;SDS011;13346;50.984;5.822;2023-10-09T06:59:38;8.32;;;5.82;;
24443;SDS011;13346;50.984;5.822;2023-10-09T07:02:28;13.30;;;7.38;;
24443;SDS011;13346;50.984;5.822;2023-10-09T07:04:56;8.90;;;6.10;;
24443;SDS011;13346;50.984;5.822;2023-10-09T07:07:35;7.45;;;5.82;;
24443;SDS011;13346;50.984;5.822;2023-10-09T07:10:15;15.25;;;7.63;;
24443;SDS011;13346;50.984;5.822;2023-10-09T07:13:06;10.23;;;7.13;;
24443;SDS011;13346;50.984;5.822;2023-10-09T07:15:33;9.57;;;6.18;;
24443;SDS011;13346;50.984;5.822;2023-10-09T07:18:16;6.75;;;6.15;;
24443;SDS011;13346;50.984;5.822;2023-10-09T07:20:48;7.13;;;6.43;;
24443;SDS011;13346;50.984;5.822;2023-10-09T07:23:36;12.40;;;7.53;;
24443;SDS011;13346;50.984;5.822;2023-10-09T07:26:13;6.30;;;5.70;;
24443;SDS011;13346;50.984;5.822;2023-10-09T07:29:00;7.90;;;6.32;;
24443;SDS011;13346;50.984;5.822;2023-10-09T07:31:41;7.47;;;5.78;;
24443;SDS011;13346;50.984;5.822;2023-10-09T07:34:10;15.82;;;6.53;;
24443;SDS011;13346;50.984;5.822;2023-10-09T07:37:03;8.27;;;6.53;;
24443;SDS011;13346;50.984;5.822;2023-10-09T07:39:31;9.38;;;6.82;;
24443;SDS011;13346;50.984;5.822;2023-10-09T07:42:01;9.40;;;6.70;;
24443;SDS011;13346;50.984;5.822;2023-10-09T07:44:53;9.15;;;6.72;;
24443;SDS011;13346;50.984;5.822;2023-10-09T07:47:23;9.77;;;6.63;;
24443;SDS011;13346;50.984;5.822;2023-10-09T07:50:10;12.07;;;7.32;;
24443;SDS011;13346;50.984;5.822;2023-10-09T07:52:37;10.63;;;6.78;;
24443;SDS011;13346;50.984;5.822;2023-10-09T07:55:10;7.72;;;6.47;;
24443;SDS011;13346;50.984;5.822;2023-10-09T07:57:51;11.60;;;6.95;;
24443;SDS011;13346;50.984;5.822;2023-10-09T08:00:20;9.05;;;6.97;;
24443;SDS011;13346;50.984;5.822;2023-10-09T08:03:31;10.48;;;7.40;;
24443;SDS011;13346;50.984;5.822;2023-10-09T08:06:00;8.68;;;7.55;;
24443;SDS011;13346;50.984;5.822;2023-10-09T08:08:53;9.68;;;6.95;;
24443;SDS011;13346;50.984;5.822;2023-10-09T08:11:37;12.43;;;6.80;;
24443;SDS011;13346;50.984;5.822;2023-10-09T08:14:24;8.57;;;6.53;;
24443;SDS011;13346;50.984;5.822;2023-10-09T08:17:06;6.70;;;6.10;;
24443;SDS011;13346;50.984;5.822;2023-10-09T08:19:39;11.90;;;7.30;;
24443;SDS011;13346;50.984;5.822;2023-10-09T08:22:21;12.77;;;7.90;;
24443;SDS011;13346;50.984;5.822;2023-10-09T08:25:09;11.32;;;7.97;;
24443;SDS011;13346;50.984;5.822;2023-10-09T08:27:52;11.05;;;8.60;;
24443;SDS011;13346;50.984;5.822;2023-10-09T08:30:24;14.50;;;7.15;;
24443;SDS011;13346;50.984;5.822;2023-10-09T08:32:55;10.85;;;7.57;;
24443;SDS011;13346;50.984;5.822;2023-10-09T08:35:29;7.97;;;6.93;;
24443;SDS011;13346;50.984;5.822;2023-10-09T08:37:56;7.68;;;6.97;;
24443;SDS011;13346;50.984;5.822;2023-10-09T08:40:31;10.05;;;6.90;;
24443;SDS011;13346;50.984;5.822;2023-10-09T08:43:06;9.32;;;6.93;;
24443;SDS011;13346;50.984;5.822;2023-10-09T08:45:37;9.32;;;7.80;;
24443;SDS011;13346;50.984;5.822;2023-10-09T08:48:08;7.75;;;7.05;;
24443;SDS011;13346;50.984;5.822;2023-10-09T08:50:40;11.02;;;7.78;;
24443;SDS011;13346;50.984;5.822;2023-10-09T08:53:09;12.32;;;6.85;;
24443;SDS011;13346;50.984;5.822;2023-10-09T08:55:37;10.63;;;7.78;;
24443;SDS011;13346;50.984;5.822;2023-10-09T08:58:05;14.80;;;8.18;;
24443;SDS011;13346;50.984;5.822;2023-10-09T09:00:44;8.48;;;6.65;;
24443;SDS011;13346;50.984;5.822;2023-10-09T09:03:14;13.63;;;9.07;;
24443;SDS011;13346;50.984;5.822;2023-10-09T09:05:44;14.30;;;7.25;;
24443;SDS011;13346;50.984;5.822;2023-10-09T09:08:21;10.15;;;7.32;;
24443;SDS011;13346;50.984;5.822;2023-10-09T09:10:51;9.45;;;6.85;;
24443;SDS011;13346;50.984;5.822;2023-10-09T09:13:30;7.53;;;6.78;;
24443;SDS011;13346;50.984;5.822;2023-10-09T09:15:59;6.97;;;6.25;;
24443;SDS011;13346;50.984;5.822;2023-10-09T09:18:29;12.07;;;6.32;;
24443;SDS011;13346;50.984;5.822;2023-10-09T09:21:12;21.75;;;7.53;;
24443;SDS011;13346;50.984;5.822;2023-10-09T09:23:53;8.63;;;6.85;;
24443;SDS011;13346;50.984;5.822;2023-10-09T09:26:32;10.77;;;7.95;;
24443;SDS011;13346;50.984;5.822;2023-10-09T09:29:10;6.28;;;5.68;;
24443;SDS011;13346;50.984;5.822;2023-10-09T09:31:37;8.40;;;6.13;;
24443;SDS011;13346;50.984;5.822;2023-10-09T09:34:08;8.63;;;6.00;;
24443;SDS011;13346;50.984;5.822;2023-10-09T09:36:51;8.48;;;6.55;;
24443;SDS011;13346;50.984;5.822;2023-10-09T09:39:21;11.23;;;7.15;;
24443;SDS011;13346;50.984;5.822;2023-10-09T09:41:56;7.65;;;6.15;;
24443;SDS011;13346;50.984;5.822;2023-10-09T09:44:31;7.47;;;6.47;;
24443;SDS011;13346;50.984;5.822;2023-10-09T09:47:08;8.27;;;6.50;;
24443;SDS011;13346;50.984;5.822;2023-10-09T09:49:41;9.25;;;6.53;;
24443;SDS011;13346;50.984;5.822;2023-10-09T09:52:09;9.15;;;6.18;;
24443;SDS011;13346;50.984;5.822;2023-10-09T09:54:37;7.25;;;6.07;;
24443;SDS011;13346;50.984;5.822;2023-10-09T09:57:06;6.38;;;5.85;;
24443;SDS011;13346;50.984;5.822;2023-10-09T09:59:38;10.23;;;5.80;;
24443;SDS011;13346;50.984;5.822;2023-10-09T10:02:16;15.32;;;7.88;;
24443;SDS011;13346;50.984;5.822;2023-10-09T10:04:51;10.60;;;7.07;;
24443;SDS011;13346;50.984;5.822;2023-10-09T10:07:22;8.98;;;6.50;;
24443;SDS011;13346;50.984;5.822;2023-10-09T10:09:53;8.70;;;6.22;;
24443;SDS011;13346;50.984;5.822;2023-10-09T10:18:51;7.00;;;5.68;;
24443;SDS011;13346;50.984;5.822;2023-10-09T10:21:26;15.40;;;5.97;;
24443;SDS011;13346;50.984;5.822;2023-10-09T10:27:20;7.15;;;6.38;;
24443;SDS011;13346;50.984;5.822;2023-10-09T10:32:58;7.20;;;5.43;;
24443;SDS011;13346;50.984;5.822;2023-10-09T10:35:34;7.80;;;5.10;;
24443;SDS011;13346;50.984;5.822;2023-10-09T10:38:28;8.93;;;6.40;;
24443;SDS011;13346;50.984;5.822;2023-10-09T10:41:11;5.90;;;5.07;;
24443;SDS011;13346;50.984;5.822;2023-10-09T10:43:41;7.80;;;5.15;;
24443;SDS011;13346;50.984;5.822;2023-10-09T10:46:24;6.75;;;4.88;;
24443;SDS011;13346;50.984;5.822;2023-10-09T10:49:02;7.18;;;5.10;;
24443;SDS011;13346;50.984;5.822;2023-10-09T10:51:40;15.95;;;6.20;;
24443;SDS011;13346;50.984;5.822;2023-10-09T10:54:19;8.10;;;5.32;;
24443;SDS011;13346;50.984;5.822;2023-10-09T10:57:17;8.95;;;5.47;;
24443;SDS011;13346;50.984;5.822;2023-10-09T10:59:54;6.47;;;5.25;;
24443;SDS011;13346;50.984;5.822;2023-10-09T11:02:38;5.15;;;4.65;;
24443;SDS011;13346;50.984;5.822;2023-10-09T11:05:07;7.20;;;5.55;;
24443;SDS011;13346;50.984;5.822;2023-10-09T11:07:49;7.18;;;5.10;;
24443;SDS011;13346;50.984;5.822;2023-10-09T11:10:23;5.60;;;5.05;;
24443;SDS011;13346;50.984;5.822;2023-10-09T11:12:57;7.32;;;5.28;;
24443;SDS011;13346;50.984;5.822;2023-10-09T11:15:53;7.68;;;5.22;;
24443;SDS011;13346;50.984;5.822;2023-10-09T11:18:40;5.40;;;4.57;;
24443;SDS011;13346;50.984;5.822;2023-10-09T11:21:13;5.57;;;5.05;;
24443;SDS011;13346;50.984;5.822;2023-10-09T11:23:57;8.10;;;5.10;;
24443;SDS011;13346;50.984;5.822;2023-10-09T11:26:46;4.72;;;4.30;;
24443;SDS011;13346;50.984;5.822;2023-10-09T11:29:20;5.10;;;4.63;;
24443;SDS011;13346;50.984;5.822;2023-10-09T11:31:57;6.50;;;5.38;;
24443;SDS011;13346;50.984;5.822;2023-10-09T11:34:25;5.60;;;4.80;;
24443;SDS011;13346;50.984;5.822;2023-10-09T11:36:59;5.93;;;4.45;;
24443;SDS011;13346;50.984;5.822;2023-10-09T11:39:29;5.95;;;5.40;;
24443;SDS011;13346;50.984;5.822;2023-10-09T11:42:17;5.65;;;5.03;;
24443;SDS011;13346;50.984;5.822;2023-10-09T11:45:01;10.75;;;6.13;;
24443;SDS011;13346;50.984;5.822;2023-10-09T11:47:45;5.28;;;4.78;;
24443;SDS011;13346;50.984;5.822;2023-10-09T11:53:08;5.07;;;4.68;;
24443;SDS011;13346;50.984;5.822;2023-10-09T11:55:37;6.40;;;5.78;;
24443;SDS011;13346;50.984;5.822;2023-10-09T11:58:06;6.88;;;4.97;;
24443;SDS011;13346;50.984;5.822;2023-10-09T12:00:34;9.38;;;5.53;;
24443;SDS011;13346;50.984;5.822;2023-10-09T12:03:11;5.88;;;5.30;;
24443;SDS011;13346;50.984;5.822;2023-10-09T12:05:40;8.50;;;5.22;;
24443;SDS011;13346;50.984;5.822;2023-10-09T12:08:11;7.03;;;5.28;;
24443;SDS011;13346;50.984;5.822;2023-10-09T12:10:40;5.53;;;5.03;;
24443;SDS011;13346;50.984;5.822;2023-10-09T12:13:09;7.22;;;5.45;;
24443;SDS011;13346;50.984;5.822;2023-10-09T12:15:37;7.28;;;5.95;;
24443;SDS011;13346;50.984;5.822;2023-10-09T12:18:05;8.57;;;5.07;;
24443;SDS011;13346;50.984;5.822;2023-10-09T12:20:40;6.85;;;5.88;;
24443;SDS011;13346;50.984;5.822;2023-10-09T12:23:07;7.47;;;5.60;;
24443;SDS011;13346;50.984;5.822;2023-10-09T12:25:38;6.80;;;6.13;;
24443;SDS011;13346;50.984;5.822;2023-10-09T12:28:05;5.80;;;5.13;;
24443;SDS011;13346;50.984;5.822;2023-10-09T12:30:38;12.13;;;4.82;;
24443;SDS011;13346;50.984;5.822;2023-10-09T12:33:06;5.85;;;5.38;;
24443;SDS011;13346;50.984;5.822;2023-10-09T12:35:36;8.05;;;5.47;;
24443;SDS011;13346;50.984;5.822;2023-10-09T12:38:04;6.25;;;4.68;;
24443;SDS011;13346;50.984;5.822;2023-10-09T12:40:35;6.00;;;4.95;;
24443;SDS011;13346;50.984;5.822;2023-10-09T12:43:03;5.93;;;4.78;;
24443;SDS011;13346;50.984;5.822;2023-10-09T12:45:33;11.70;;;5.75;;
24443;SDS011;13346;50.984;5.822;2023-10-09T12:48:02;6.25;;;4.47;;
24443;SDS011;13346;50.984;5.822;2023-10-09T12:50:34;9.60;;;4.80;;
24443;SDS011;13346;50.984;5.822;2023-10-09T12:53:07;8.98;;;5.28;;
24443;SDS011;13346;50.984;5.822;2023-10-09T12:55:35;8.48;;;5.32;;
24443;SDS011;13346;50.984;5.822;2023-10-09T12:58:05;7.82;;;5.03;;
24443;SDS011;13346;50.984;5.822;2023-10-09T13:00:34;6.25;;;5.68;;
24443;SDS011;13346;50.984;5.822;2023-10-09T13:03:06;7.15;;;5.30;;
24443;SDS011;13346;50.984;5.822;2023-10-09T13:05:44;8.60;;;6.18;;
24443;SDS011;13346;50.984;5.822;2023-10-09T13:08:20;9.02;;;6.18;;
24443;SDS011;13346;50.984;5.822;2023-10-09T13:10:49;8.07;;;5.80;;
24443;SDS011;13346;50.984;5.822;2023-10-09T13:13:26;8.82;;;6.82;;
24443;SDS011;13346;50.984;5.822;2023-10-09T13:16:10;9.50;;;6.75;;
24443;SDS011;13346;50.984;5.822;2023-10-09T13:18:41;7.35;;;6.30;;
24443;SDS011;13346;50.984;5.822;2023-10-09T13:21:15;7.25;;;5.97;;
24443;SDS011;13346;50.984;5.822;2023-10-09T13:23:42;12.77;;;5.93;;
24443;SDS011;13346;50.984;5.822;2023-10-09T13:26:12;12.07;;;6.80;;
24443;SDS011;13346;50.984;5.822;2023-10-09T13:28:49;9.15;;;5.18;;
24443;SDS011;13346;50.984;5.822;2023-10-09T13:31:17;6.53;;;5.38;;
24443;SDS011;13346;50.984;5.822;2023-10-09T13:33:47;11.68;;;6.25;;
24443;SDS011;13346;50.984;5.822;2023-10-09T13:36:19;7.63;;;5.55;;
24443;SDS011;13346;50.984;5.822;2023-10-09T13:38:53;7.65;;;5.93;;
24443;SDS011;13346;50.984;5.822;2023-10-09T13:41:21;8.30;;;5.65;;
24443;SDS011;13346;50.984;5.822;2023-10-09T13:43:51;8.63;;;5.25;;
24443;SDS011;13346;50.984;5.822;2023-10-09T13:46:18;9.48;;;6.03;;
24443;SDS011;13346;50.984;5.822;2023-10-09T13:48:45;7.15;;;6.32;;
24443;SDS011;13346;50.984;5.822;2023-10-09T13:51:14;7.22;;;5.47;;
24443;SDS011;13346;50.984;5.822;2023-10-09T13:53:44;5.18;;;4.75;;
24443;SDS011;13346;50.984;5.822;2023-10-09T13:56:12;6.60;;;4.80;;
24443;SDS011;13346;50.984;5.822;2023-10-09T13:58:45;5.32;;;4.88;;
24443;SDS011;13346;50.984;5.822;2023-10-09T14:01:13;7.20;;;5.57;;
24443;SDS011;13346;50.984;5.822;2023-10-09T14:03:54;5.97;;;5.43;;
24443;SDS011;13346;50.984;5.822;2023-10-09T14:06:22;7.43;;;5.35;;
24443;SDS011;13346;50.984;5.822;2023-10-09T14:08:57;6.45;;;5.85;;
24443;SDS011;13346;50.984;5.822;2023-10-09T14:11:27;9.80;;;5.78;;
24443;SDS011;13346;50.984;5.822;2023-10-09T14:13:54;8.23;;;6.22;;
24443;SDS011;13346;50.984;5.822;2023-10-09T14:16:21;8.35;;;6.80;;
24443;SDS011;13346;50.984;5.822;2023-10-09T14:18:54;9.55;;;6.30;;
24443;SDS011;13346;50.984;5.822;2023-10-09T14:21:25;6.38;;;5.80;;
24443;SDS011;13346;50.984;5.822;2023-10-09T14:23:56;7.68;;;6.25;;
24443;SDS011;13346;50.984;5.822;2023-10-09T14:26:24;7.53;;;5.95;;
24443;SDS011;13346;50.984;5.822;2023-10-09T14:28:52;13.27;;;6.05;;
24443;SDS011;13346;50.984;5.822;2023-10-09T14:31:22;8.43;;;6.07;;
24443;SDS011;13346;50.984;5.822;2023-10-09T14:33:55;7.63;;;6.75;;
24443;SDS011;13346;50.984;5.822;2023-10-09T14:36:23;7.22;;;6.57;;
24443;SDS011;13346;50.984;5.822;2023-10-09T14:38:58;11.38;;;6.78;;
24443;SDS011;13346;50.984;5.822;2023-10-09T14:41:27;6.30;;;5.35;;
24443;SDS011;13346;50.984;5.822;2023-10-09T14:43:58;10.73;;;6.90;;
24443;SDS011;13346;50.984;5.822;2023-10-09T14:46:26;10.25;;;6.15;;
24443;SDS011;13346;50.984;5.822;2023-10-09T14:48:56;14.65;;;6.25;;
24443;SDS011;13346;50.984;5.822;2023-10-09T14:51:25;8.27;;;6.22;;
24443;SDS011;13346;50.984;5.822;2023-10-09T14:53:56;9.48;;;5.75;;
24443;SDS011;13346;50.984;5.822;2023-10-09T14:56:28;8.80;;;5.70;;
24443;SDS011;13346;50.984;5.822;2023-10-09T14:58:56;9.68;;;6.38;;
24443;SDS011;13346;50.984;5.822;2023-10-09T15:01:24;4.53;;;4.22;;
24443;SDS011;13346;50.984;5.822;2023-10-09T15:03:56;9.27;;;5.72;;
24443;SDS011;13346;50.984;5.822;2023-10-09T15:06:25;6.28;;;5.32;;
24443;SDS011;13346;50.984;5.822;2023-10-09T15:08:55;7.45;;;5.78;;
24443;SDS011;13346;50.984;5.822;2023-10-09T15:11:23;9.13;;;6.18;;
24443;SDS011;13346;50.984;5.822;2023-10-09T15:13:51;5.78;;;5.28;;
24443;SDS011;13346;50.984;5.822;2023-10-09T15:16:19;10.23;;;5.53;;
24443;SDS011;13346;50.984;5.822;2023-10-09T15:18:52;8.30;;;5.65;;
24443;SDS011;13346;50.984;5.822;2023-10-09T15:21:23;5.90;;;5.35;;
24443;SDS011;13346;50.984;5.822;2023-10-09T15:23:53;7.25;;;5.55;;
24443;SDS011;13346;50.984;5.822;2023-10-09T15:26:21;11.48;;;7.50;;
24443;SDS011;13346;50.984;5.822;2023-10-09T15:28:51;6.70;;;5.60;;
24443;SDS011;13346;50.984;5.822;2023-10-09T15:31:19;50.17;;;8.52;;
24443;SDS011;13346;50.984;5.822;2023-10-09T15:33:47;7.38;;;5.78;;
24443;SDS011;13346;50.984;5.822;2023-10-09T15:36:17;30.45;;;7.95;;
24443;SDS011;13346;50.984;5.822;2023-10-09T15:38:47;12.68;;;5.88;;
24443;SDS011;13346;50.984;5.822;2023-10-09T15:41:15;9.80;;;5.07;;
24443;SDS011;13346;50.984;5.822;2023-10-09T15:43:43;7.40;;;5.43;;
24443;SDS011;13346;50.984;5.822;2023-10-09T15:46:11;7.40;;;5.65;;